AAL4L KMIA-KDEN
Flight info
| Callsign | AAL4L |
|---|---|
| Flight time | 3h 59m |
| Altitude | 32000 |
| Route | HURCN4 SMELZ Q116 JAWJA CABLO KT15M KM27I KK42C KIISS CLASH5 |
| Aircraft | B738/M-SDE2E3FGHIRWXY/LB1 |
Departure
| Time | 2026-05-04 03:00 |
|---|---|
| Airport | Miami International Airport (KMIA) |
Arrival
| Time | 2026-05-04 06:59 |
|---|---|
| Airport | Denver International Airport (KDEN) |
| Time | Latitude | Longitude | Altitude | Speed | Heading |
|---|---|---|---|---|---|
| 2026-05-04 02:10 | 25.79905 | -80.27271 | 14 ft | 0 kts | 168° |
| 2026-05-04 02:49 | 25.79911 | -80.27273 | 14 ft | 4 kts | 168° |
| 2026-05-04 02:49 | 25.79938 | -80.27279 | 17 ft | 4 kts | 168° |
| 2026-05-04 02:50 | 25.79961 | -80.27284 | 16 ft | 3 kts | 169° |
| 2026-05-04 02:50 | 25.79984 | -80.27283 | 15 ft | 4 kts | 221° |
| 2026-05-04 02:50 | 25.79996 | -80.27260 | 15 ft | 4 kts | 262° |
| 2026-05-04 02:50 | 25.79998 | -80.27231 | 15 ft | 4 kts | 267° |
| 2026-05-04 02:51 | 25.79999 | -80.27226 | 15 ft | 1 kts | 267° |
| 2026-05-04 02:53 | 25.79999 | -80.27228 | 15 ft | 1 kts | 280° |
| 2026-05-04 02:53 | 25.80009 | -80.27227 | 18 ft | 3 kts | 7° |
| 2026-05-04 02:53 | 25.80070 | -80.27245 | 15 ft | 14 kts | 302° |
| 2026-05-04 02:53 | 25.80074 | -80.27377 | 15 ft | 19 kts | 268° |
| 2026-05-04 02:54 | 25.80068 | -80.27518 | 14 ft | 18 kts | 266° |
| 2026-05-04 02:54 | 25.80065 | -80.27658 | 14 ft | 18 kts | 269° |
| 2026-05-04 02:54 | 25.80056 | -80.27789 | 14 ft | 17 kts | 264° |
| 2026-05-04 02:54 | 25.80049 | -80.27919 | 15 ft | 16 kts | 266° |
| 2026-05-04 02:55 | 25.80034 | -80.28159 | 13 ft | 15 kts | 269° |
| 2026-05-04 02:55 | 25.80032 | -80.28273 | 14 ft | 14 kts | 269° |
| 2026-05-04 02:55 | 25.80030 | -80.28383 | 14 ft | 14 kts | 268° |
| 2026-05-04 02:56 | 25.80026 | -80.28487 | 14 ft | 13 kts | 267° |
| 2026-05-04 02:56 | 25.80023 | -80.28587 | 15 ft | 13 kts | 269° |
| 2026-05-04 02:56 | 25.80020 | -80.28685 | 15 ft | 12 kts | 268° |
| 2026-05-04 02:56 | 25.80017 | -80.28780 | 16 ft | 12 kts | 267° |
| 2026-05-04 02:57 | 25.80012 | -80.28873 | 15 ft | 12 kts | 266° |
| 2026-05-04 02:57 | 25.80007 | -80.28963 | 15 ft | 12 kts | 266° |
| 2026-05-04 02:57 | 25.80001 | -80.29051 | 15 ft | 11 kts | 265° |
| 2026-05-04 02:57 | 25.79997 | -80.29136 | 15 ft | 11 kts | 268° |
| 2026-05-04 02:58 | 25.79994 | -80.29219 | 15 ft | 11 kts | 268° |
| 2026-05-04 02:58 | 25.79991 | -80.29315 | 15 ft | 16 kts | 268° |
| 2026-05-04 02:58 | 25.79985 | -80.29474 | 13 ft | 23 kts | 267° |
| 2026-05-04 02:58 | 25.79979 | -80.29652 | 13 ft | 23 kts | 270° |
| 2026-05-04 02:59 | 25.79974 | -80.29821 | 13 ft | 22 kts | 266° |
| 2026-05-04 02:59 | 25.79979 | -80.29988 | 14 ft | 21 kts | 283° |
| 2026-05-04 02:59 | 25.80043 | -80.30113 | 13 ft | 16 kts | 3° |
| 2026-05-04 02:59 | 25.80077 | -80.29979 | 12 ft | 38 kts | 86° |
| 2026-05-04 03:00 | 25.80105 | -80.29348 | 15 ft | 123 kts | 87° |
| 2026-05-04 03:00 | 25.80150 | -80.28121 | 47 ft | 191 kts | 88° |
| 2026-05-04 03:00 | 25.80163 | -80.26584 | 902 ft | 202 kts | 88° |
| 2026-05-04 03:00 | 25.80255 | -80.24912 | 1472 ft | 234 kts | 85° |
| 2026-05-04 03:01 | 25.80383 | -80.23001 | 2054 ft | 253 kts | 87° |
| 2026-05-04 03:01 | 25.80446 | -80.21718 | 2686 ft | 252 kts | 88° |
| 2026-05-04 03:01 | 25.80533 | -80.19706 | 3198 ft | 270 kts | 85° |
| 2026-05-04 03:01 | 25.81118 | -80.17720 | 3928 ft | 275 kts | 55° |
| 2026-05-04 03:02 | 25.82537 | -80.16294 | 4642 ft | 280 kts | 22° |
| 2026-05-04 03:02 | 25.84419 | -80.15842 | 5420 ft | 279 kts | 359° |
| 2026-05-04 03:02 | 25.86373 | -80.15787 | 6220 ft | 283 kts | 358° |
| 2026-05-04 03:02 | 25.88350 | -80.15737 | 6962 ft | 287 kts | 358° |
| 2026-05-04 03:03 | 25.90329 | -80.15939 | 7680 ft | 285 kts | 340° |
| 2026-05-04 03:03 | 25.92205 | -80.16639 | 8492 ft | 285 kts | 337° |
| 2026-05-04 03:03 | 25.94093 | -80.17337 | 9304 ft | 287 kts | 338° |
| 2026-05-04 03:03 | 25.96002 | -80.18019 | 10063 ft | 291 kts | 338° |
| 2026-05-04 03:04 | 25.97922 | -80.18841 | 10423 ft | 303 kts | 323° |
| 2026-05-04 03:04 | 25.99395 | -80.20542 | 10598 ft | 315 kts | 296° |
| 2026-05-04 03:04 | 26.00335 | -80.22820 | 10770 ft | 334 kts | 289° |
| 2026-05-04 03:04 | 26.01212 | -80.25293 | 10967 ft | 352 kts | 289° |
| 2026-05-04 03:05 | 26.02101 | -80.27857 | 11452 ft | 358 kts | 289° |
| 2026-05-04 03:05 | 26.03004 | -80.30446 | 12094 ft | 360 kts | 289° |
| 2026-05-04 03:05 | 26.03921 | -80.33039 | 12755 ft | 362 kts | 289° |
| 2026-05-04 03:05 | 26.04851 | -80.35647 | 13365 ft | 365 kts | 289° |
| 2026-05-04 03:06 | 26.05796 | -80.38282 | 13954 ft | 367 kts | 289° |
| 2026-05-04 03:06 | 26.06747 | -80.40926 | 14502 ft | 369 kts | 289° |
| 2026-05-04 03:06 | 26.07706 | -80.43587 | 15054 ft | 371 kts | 288° |
| 2026-05-04 03:06 | 26.08665 | -80.46253 | 15594 ft | 373 kts | 288° |
| 2026-05-04 03:07 | 26.09632 | -80.48941 | 16111 ft | 375 kts | 288° |
| 2026-05-04 03:07 | 26.10604 | -80.51643 | 16629 ft | 377 kts | 288° |
| 2026-05-04 03:07 | 26.11568 | -80.54326 | 17161 ft | 379 kts | 288° |
| 2026-05-04 03:07 | 26.12701 | -80.57009 | 17812 ft | 383 kts | 299° |
| 2026-05-04 03:08 | 26.14509 | -80.59247 | 18305 ft | 396 kts | 313° |
| 2026-05-04 03:08 | 26.16877 | -80.60923 | 18659 ft | 413 kts | 328° |
| 2026-05-04 03:08 | 26.19532 | -80.62206 | 19043 ft | 418 kts | 330° |
| 2026-05-04 03:08 | 26.22227 | -80.63444 | 19405 ft | 421 kts | 330° |
| 2026-05-04 03:09 | 26.24945 | -80.64692 | 19771 ft | 424 kts | 330° |
| 2026-05-04 03:09 | 26.27669 | -80.65965 | 20153 ft | 426 kts | 329° |
| 2026-05-04 03:09 | 26.30373 | -80.67246 | 20509 ft | 429 kts | 329° |
| 2026-05-04 03:09 | 26.33122 | -80.68561 | 20880 ft | 431 kts | 329° |
| 2026-05-04 03:10 | 26.35881 | -80.69886 | 21239 ft | 433 kts | 329° |
| 2026-05-04 03:10 | 26.38658 | -80.71225 | 21585 ft | 435 kts | 327° |
| 2026-05-04 03:10 | 26.41193 | -80.72964 | 21878 ft | 420 kts | 310° |
| 2026-05-04 03:10 | 26.43155 | -80.75326 | 22268 ft | 414 kts | 304° |
| 2026-05-04 03:11 | 26.45072 | -80.77739 | 22613 ft | 417 kts | 304° |
| 2026-05-04 03:11 | 26.47026 | -80.80144 | 22911 ft | 420 kts | 305° |
| 2026-05-04 03:11 | 26.49013 | -80.82556 | 23228 ft | 423 kts | 305° |
| 2026-05-04 03:11 | 26.51014 | -80.84972 | 23546 ft | 425 kts | 305° |
| 2026-05-04 03:12 | 26.53024 | -80.87401 | 23826 ft | 427 kts | 305° |
| 2026-05-04 03:12 | 26.55041 | -80.89840 | 24114 ft | 428 kts | 305° |
| 2026-05-04 03:12 | 26.57062 | -80.92288 | 24411 ft | 428 kts | 305° |
| 2026-05-04 03:12 | 26.59086 | -80.94741 | 24726 ft | 429 kts | 305° |
| 2026-05-04 03:13 | 26.61108 | -80.97193 | 25029 ft | 430 kts | 305° |
| 2026-05-04 03:13 | 26.63135 | -80.99653 | 25340 ft | 430 kts | 305° |
| 2026-05-04 03:13 | 26.65161 | -81.02113 | 25624 ft | 431 kts | 305° |
| 2026-05-04 03:13 | 26.67192 | -81.04581 | 25894 ft | 432 kts | 305° |
| 2026-05-04 03:14 | 26.69229 | -81.07059 | 26162 ft | 433 kts | 305° |
| 2026-05-04 03:14 | 26.71267 | -81.09538 | 26430 ft | 434 kts | 305° |
| 2026-05-04 03:14 | 26.73311 | -81.12027 | 26691 ft | 435 kts | 305° |
| 2026-05-04 03:14 | 26.75358 | -81.14520 | 26954 ft | 435 kts | 305° |
| 2026-05-04 03:15 | 26.77409 | -81.17020 | 27215 ft | 436 kts | 305° |
| 2026-05-04 03:15 | 26.79435 | -81.19490 | 27457 ft | 437 kts | 305° |
| 2026-05-04 03:15 | 26.81492 | -81.22000 | 27706 ft | 437 kts | 304° |
| 2026-05-04 03:15 | 26.83546 | -81.24505 | 28068 ft | 436 kts | 304° |
| 2026-05-04 03:16 | 26.85590 | -81.26998 | 28503 ft | 432 kts | 304° |
| 2026-05-04 03:16 | 26.87610 | -81.29463 | 29018 ft | 427 kts | 304° |
| 2026-05-04 03:16 | 26.89606 | -81.31901 | 29609 ft | 421 kts | 304° |
| 2026-05-04 03:16 | 26.91576 | -81.34310 | 30128 ft | 418 kts | 304° |
| 2026-05-04 03:17 | 26.93536 | -81.36714 | 30404 ft | 418 kts | 304° |
| 2026-05-04 03:17 | 26.95496 | -81.39119 | 30629 ft | 419 kts | 304° |
| 2026-05-04 03:17 | 26.97465 | -81.41537 | 30893 ft | 419 kts | 303° |
| 2026-05-04 03:17 | 26.99429 | -81.43946 | 31201 ft | 418 kts | 303° |
| 2026-05-04 03:18 | 27.01388 | -81.46349 | 31472 ft | 417 kts | 303° |
| 2026-05-04 03:18 | 27.03345 | -81.48752 | 31732 ft | 418 kts | 303° |
| 2026-05-04 03:18 | 27.05370 | -81.51100 | 32005 ft | 425 kts | 310° |
| 2026-05-04 03:18 | 27.07821 | -81.53010 | 32080 ft | 439 kts | 317° |
| 2026-05-04 03:19 | 27.10418 | -81.54831 | 32071 ft | 440 kts | 317° |
| 2026-05-04 03:19 | 27.15578 | -81.58458 | 32071 ft | 436 kts | 317° |
| 2026-05-04 03:20 | 27.20672 | -81.62105 | 32080 ft | 433 kts | 316° |
| 2026-05-04 03:20 | 27.25734 | -81.65765 | 32105 ft | 432 kts | 316° |
| 2026-05-04 03:21 | 27.30784 | -81.69425 | 32091 ft | 431 kts | 316° |
| 2026-05-04 03:21 | 27.35821 | -81.73075 | 32083 ft | 430 kts | 316° |
| 2026-05-04 03:22 | 27.40802 | -81.76688 | 32081 ft | 429 kts | 316° |
| 2026-05-04 03:22 | 27.45820 | -81.80323 | 32080 ft | 429 kts | 317° |
| 2026-05-04 03:22 | 27.48489 | -81.81907 | 32088 ft | 440 kts | 324° |
| 2026-05-04 03:23 | 27.51300 | -81.83287 | 32091 ft | 443 kts | 326° |
| 2026-05-04 03:23 | 27.57020 | -81.85924 | 32086 ft | 444 kts | 326° |
| 2026-05-04 03:24 | 27.62715 | -81.88602 | 32095 ft | 443 kts | 326° |
| 2026-05-04 03:24 | 27.68385 | -81.91343 | 32101 ft | 443 kts | 325° |
| 2026-05-04 03:25 | 27.74052 | -81.94112 | 32104 ft | 444 kts | 325° |
| 2026-05-04 03:25 | 27.79718 | -81.96885 | 32110 ft | 444 kts | 325° |
| 2026-05-04 03:26 | 27.85363 | -81.99647 | 32159 ft | 446 kts | 325° |
| 2026-05-04 03:26 | 27.91060 | -82.02438 | 32132 ft | 447 kts | 325° |
| 2026-05-04 03:27 | 27.96771 | -82.05237 | 32121 ft | 448 kts | 325° |
| 2026-05-04 03:27 | 28.02485 | -82.08041 | 32116 ft | 448 kts | 325° |
| 2026-05-04 03:28 | 28.08196 | -82.10865 | 32117 ft | 445 kts | 323° |
| 2026-05-04 03:28 | 28.10816 | -82.12603 | 32128 ft | 431 kts | 315° |
| 2026-05-04 03:28 | 28.13266 | -82.14546 | 32125 ft | 429 kts | 314° |
| 2026-05-04 03:29 | 28.18076 | -82.18545 | 32136 ft | 430 kts | 313° |
| 2026-05-04 03:29 | 28.22928 | -82.22533 | 32130 ft | 431 kts | 314° |
| 2026-05-04 03:30 | 28.27822 | -82.26479 | 32127 ft | 432 kts | 314° |
| 2026-05-04 03:30 | 28.32730 | -82.30408 | 32121 ft | 432 kts | 314° |
| 2026-05-04 03:31 | 28.37638 | -82.34337 | 32124 ft | 432 kts | 314° |
| 2026-05-04 03:31 | 28.42524 | -82.38254 | 32129 ft | 432 kts | 314° |
| 2026-05-04 03:32 | 28.47435 | -82.42198 | 32173 ft | 433 kts | 315° |
| 2026-05-04 03:32 | 28.52352 | -82.46151 | 32138 ft | 433 kts | 315° |
| 2026-05-04 03:33 | 28.57264 | -82.50104 | 32102 ft | 432 kts | 315° |
| 2026-05-04 03:33 | 28.62166 | -82.54053 | 32111 ft | 431 kts | 315° |
| 2026-05-04 03:34 | 28.67054 | -82.57997 | 32105 ft | 430 kts | 315° |
| 2026-05-04 03:34 | 28.71928 | -82.61935 | 32107 ft | 429 kts | 315° |
| 2026-05-04 03:35 | 28.76794 | -82.65870 | 32154 ft | 429 kts | 315° |
| 2026-05-04 03:35 | 28.81635 | -82.69792 | 32123 ft | 429 kts | 315° |
| 2026-05-04 03:36 | 28.86501 | -82.73736 | 32134 ft | 430 kts | 315° |
| 2026-05-04 03:36 | 28.91381 | -82.77697 | 32130 ft | 430 kts | 315° |
| 2026-05-04 03:37 | 28.96251 | -82.81654 | 32132 ft | 430 kts | 316° |
| 2026-05-04 03:37 | 29.01119 | -82.85615 | 32125 ft | 430 kts | 316° |
| 2026-05-04 03:38 | 29.05989 | -82.89581 | 32117 ft | 430 kts | 316° |
| 2026-05-04 03:38 | 29.10863 | -82.93561 | 32131 ft | 431 kts | 316° |
| 2026-05-04 03:39 | 29.15739 | -82.97551 | 32125 ft | 432 kts | 316° |
| 2026-05-04 03:39 | 29.20599 | -83.01532 | 32129 ft | 432 kts | 315° |
| 2026-05-04 03:40 | 29.25489 | -83.05542 | 32130 ft | 432 kts | 315° |
| 2026-05-04 03:40 | 29.30381 | -83.09554 | 32133 ft | 433 kts | 316° |
| 2026-05-04 03:41 | 29.35285 | -83.13577 | 32133 ft | 433 kts | 315° |
| 2026-05-04 03:41 | 29.40178 | -83.17599 | 32156 ft | 434 kts | 316° |
| 2026-05-04 03:42 | 29.45089 | -83.21639 | 32140 ft | 433 kts | 316° |
| 2026-05-04 03:42 | 29.49977 | -83.25665 | 32134 ft | 432 kts | 316° |
| 2026-05-04 03:43 | 29.54857 | -83.29689 | 32143 ft | 431 kts | 316° |
| 2026-05-04 03:43 | 29.59720 | -83.33705 | 32143 ft | 430 kts | 316° |
| 2026-05-04 03:44 | 29.64534 | -83.37686 | 32142 ft | 429 kts | 316° |
| 2026-05-04 03:44 | 29.69378 | -83.41698 | 32147 ft | 430 kts | 316° |
| 2026-05-04 03:45 | 29.74231 | -83.45722 | 32147 ft | 430 kts | 316° |
| 2026-05-04 03:45 | 29.79088 | -83.49753 | 32144 ft | 431 kts | 316° |
| 2026-05-04 03:46 | 29.83962 | -83.53803 | 32200 ft | 432 kts | 317° |
| 2026-05-04 03:46 | 29.88840 | -83.57854 | 32158 ft | 432 kts | 317° |
| 2026-05-04 03:47 | 29.93712 | -83.61888 | 32153 ft | 430 kts | 317° |
| 2026-05-04 03:47 | 29.98562 | -83.65910 | 32161 ft | 429 kts | 317° |
| 2026-05-04 03:48 | 30.03365 | -83.69903 | 32161 ft | 428 kts | 317° |
| 2026-05-04 03:48 | 30.08190 | -83.73920 | 32152 ft | 427 kts | 317° |
| 2026-05-04 03:49 | 30.13012 | -83.77938 | 32153 ft | 426 kts | 317° |
| 2026-05-04 03:49 | 30.17564 | -83.82236 | 32149 ft | 417 kts | 307° |
| 2026-05-04 03:50 | 30.20995 | -83.87521 | 32154 ft | 411 kts | 299° |
| 2026-05-04 03:50 | 30.23659 | -83.92080 | 32150 ft | 412 kts | 300° |
| 2026-05-04 03:51 | 30.26886 | -83.97571 | 32167 ft | 414 kts | 301° |
| 2026-05-04 03:51 | 30.30670 | -84.03983 | 32147 ft | 416 kts | 301° |
| 2026-05-04 03:52 | 30.33940 | -84.09518 | 32146 ft | 417 kts | 301° |
| 2026-05-04 03:52 | 30.36685 | -84.14170 | 32148 ft | 418 kts | 301° |
| 2026-05-04 03:53 | 30.39964 | -84.19733 | 32152 ft | 418 kts | 301° |
| 2026-05-04 03:53 | 30.43245 | -84.25308 | 32162 ft | 419 kts | 301° |
| 2026-05-04 03:54 | 30.46519 | -84.30882 | 32152 ft | 418 kts | 302° |
| 2026-05-04 03:54 | 30.49790 | -84.36456 | 32148 ft | 417 kts | 302° |
| 2026-05-04 03:55 | 30.53046 | -84.42012 | 32129 ft | 416 kts | 302° |
| 2026-05-04 03:55 | 30.56293 | -84.47561 | 32130 ft | 415 kts | 302° |
| 2026-05-04 03:56 | 30.59531 | -84.53101 | 32125 ft | 414 kts | 302° |
| 2026-05-04 03:56 | 30.62738 | -84.58598 | 32128 ft | 413 kts | 302° |
| 2026-05-04 03:57 | 30.65960 | -84.64127 | 32125 ft | 413 kts | 302° |
| 2026-05-04 03:57 | 30.69172 | -84.69646 | 32121 ft | 412 kts | 303° |
| 2026-05-04 03:58 | 30.73981 | -84.77928 | 32128 ft | 411 kts | 303° |
| 2026-05-04 03:58 | 30.77177 | -84.83439 | 32131 ft | 411 kts | 303° |
| 2026-05-04 03:59 | 30.80352 | -84.88984 | 32138 ft | 411 kts | 303° |
| 2026-05-04 03:59 | 30.83507 | -84.94557 | 32139 ft | 412 kts | 302° |
| 2026-05-04 04:00 | 30.86630 | -85.00081 | 32165 ft | 412 kts | 303° |
| 2026-05-04 04:00 | 30.89789 | -85.05670 | 32131 ft | 413 kts | 304° |
| 2026-05-04 04:01 | 30.92950 | -85.11267 | 32148 ft | 414 kts | 303° |
| 2026-05-04 04:01 | 30.96117 | -85.16881 | 32126 ft | 414 kts | 303° |
| 2026-05-04 04:02 | 30.99281 | -85.22496 | 32141 ft | 415 kts | 303° |
| 2026-05-04 04:02 | 31.02445 | -85.28121 | 32117 ft | 415 kts | 303° |
| 2026-05-04 04:03 | 31.05589 | -85.33719 | 32138 ft | 415 kts | 303° |
| 2026-05-04 04:03 | 31.08751 | -85.39357 | 32149 ft | 415 kts | 303° |
| 2026-05-04 04:04 | 31.11908 | -85.44993 | 32142 ft | 415 kts | 304° |
| 2026-05-04 04:04 | 31.15061 | -85.50631 | 32158 ft | 414 kts | 304° |
| 2026-05-04 04:05 | 31.18207 | -85.56265 | 32139 ft | 414 kts | 304° |
| 2026-05-04 04:05 | 31.21352 | -85.61904 | 32137 ft | 414 kts | 304° |
| 2026-05-04 04:06 | 31.24493 | -85.67544 | 32142 ft | 414 kts | 304° |
| 2026-05-04 04:06 | 31.27634 | -85.73194 | 32139 ft | 414 kts | 304° |
| 2026-05-04 04:07 | 31.30768 | -85.78838 | 32136 ft | 414 kts | 304° |
| 2026-05-04 04:07 | 31.33897 | -85.84481 | 32157 ft | 414 kts | 304° |
| 2026-05-04 04:08 | 31.37006 | -85.90097 | 32158 ft | 414 kts | 304° |
| 2026-05-04 04:08 | 31.40132 | -85.95751 | 32156 ft | 414 kts | 304° |
| 2026-05-04 04:09 | 31.43258 | -86.01415 | 32153 ft | 414 kts | 304° |
| 2026-05-04 04:09 | 31.46382 | -86.07082 | 32179 ft | 414 kts | 304° |
| 2026-05-04 04:10 | 31.49509 | -86.12763 | 32164 ft | 415 kts | 304° |
| 2026-05-04 04:10 | 31.52634 | -86.18450 | 32136 ft | 415 kts | 304° |
| 2026-05-04 04:11 | 31.55760 | -86.24145 | 32142 ft | 415 kts | 304° |
| 2026-05-04 04:11 | 31.58882 | -86.29843 | 32142 ft | 415 kts | 304° |
| 2026-05-04 04:12 | 31.61998 | -86.35538 | 32111 ft | 415 kts | 304° |
| 2026-05-04 04:12 | 31.65113 | -86.41240 | 32131 ft | 415 kts | 304° |
| 2026-05-04 04:13 | 31.68208 | -86.46914 | 32141 ft | 415 kts | 304° |
| 2026-05-04 04:13 | 31.71316 | -86.52619 | 32141 ft | 415 kts | 303° |
| 2026-05-04 04:14 | 31.74423 | -86.58330 | 32147 ft | 414 kts | 303° |
| 2026-05-04 04:14 | 31.77520 | -86.64034 | 32168 ft | 414 kts | 303° |
| 2026-05-04 04:15 | 31.80611 | -86.69734 | 32164 ft | 413 kts | 303° |
| 2026-05-04 04:15 | 31.83675 | -86.75391 | 32151 ft | 412 kts | 303° |
| 2026-05-04 04:16 | 31.86768 | -86.81113 | 32126 ft | 412 kts | 303° |
| 2026-05-04 04:16 | 31.89841 | -86.86803 | 32103 ft | 411 kts | 303° |
| 2026-05-04 04:17 | 31.92884 | -86.92449 | 32073 ft | 411 kts | 303° |
| 2026-05-04 04:17 | 31.95945 | -86.98135 | 32055 ft | 411 kts | 303° |
| 2026-05-04 04:18 | 31.98997 | -87.03814 | 32048 ft | 410 kts | 303° |
| 2026-05-04 04:18 | 32.02048 | -87.09498 | 32057 ft | 410 kts | 303° |
| 2026-05-04 04:19 | 32.05095 | -87.15185 | 32091 ft | 410 kts | 303° |
| 2026-05-04 04:19 | 32.08141 | -87.20878 | 32061 ft | 410 kts | 303° |
| 2026-05-04 04:20 | 32.11184 | -87.26573 | 32068 ft | 410 kts | 303° |
| 2026-05-04 04:20 | 32.14226 | -87.32275 | 32069 ft | 410 kts | 303° |
| 2026-05-04 04:21 | 32.17262 | -87.37975 | 32070 ft | 410 kts | 303° |
| 2026-05-04 04:21 | 32.20301 | -87.43691 | 32085 ft | 410 kts | 303° |
| 2026-05-04 04:22 | 32.23313 | -87.49363 | 32085 ft | 411 kts | 303° |
| 2026-05-04 04:22 | 32.26349 | -87.55088 | 32084 ft | 411 kts | 303° |
| 2026-05-04 04:23 | 32.29384 | -87.60820 | 32100 ft | 411 kts | 303° |
| 2026-05-04 04:23 | 32.32417 | -87.66559 | 32099 ft | 411 kts | 303° |
| 2026-05-04 04:24 | 32.35449 | -87.72302 | 32103 ft | 412 kts | 302° |
| 2026-05-04 04:24 | 32.38479 | -87.78053 | 32118 ft | 412 kts | 302° |
| 2026-05-04 04:25 | 32.41509 | -87.83811 | 32119 ft | 412 kts | 302° |
| 2026-05-04 04:25 | 32.44545 | -87.89591 | 32126 ft | 413 kts | 302° |
| 2026-05-04 04:26 | 32.47550 | -87.95320 | 32127 ft | 413 kts | 302° |
| 2026-05-04 04:26 | 32.50581 | -88.01103 | 32135 ft | 413 kts | 302° |
| 2026-05-04 04:27 | 32.53625 | -88.06881 | 32148 ft | 413 kts | 303° |
| 2026-05-04 04:27 | 32.56668 | -88.12653 | 32138 ft | 413 kts | 302° |
| 2026-05-04 04:28 | 32.59708 | -88.18430 | 32153 ft | 413 kts | 302° |
| 2026-05-04 04:28 | 32.62743 | -88.24212 | 32162 ft | 413 kts | 302° |
| 2026-05-04 04:29 | 32.65777 | -88.30000 | 32155 ft | 413 kts | 302° |
| 2026-05-04 04:29 | 32.68812 | -88.35803 | 32153 ft | 414 kts | 302° |
| 2026-05-04 04:30 | 32.71844 | -88.41606 | 32152 ft | 414 kts | 302° |
| 2026-05-04 04:30 | 32.74877 | -88.47421 | 32122 ft | 414 kts | 302° |
| 2026-05-04 04:31 | 32.77901 | -88.53229 | 32134 ft | 413 kts | 302° |
| 2026-05-04 04:31 | 32.80922 | -88.59039 | 32157 ft | 413 kts | 302° |
| 2026-05-04 04:32 | 32.83921 | -88.64818 | 32134 ft | 413 kts | 302° |
| 2026-05-04 04:32 | 32.86932 | -88.70626 | 32153 ft | 413 kts | 302° |
| 2026-05-04 04:33 | 32.89947 | -88.76452 | 32169 ft | 413 kts | 302° |
| 2026-05-04 04:33 | 32.92956 | -88.82276 | 32150 ft | 413 kts | 302° |
| 2026-05-04 04:34 | 32.95963 | -88.88104 | 32122 ft | 413 kts | 302° |
| 2026-05-04 04:34 | 32.98967 | -88.93937 | 32098 ft | 413 kts | 302° |
| 2026-05-04 04:35 | 33.01965 | -88.99768 | 32065 ft | 413 kts | 301° |
| 2026-05-04 04:35 | 33.04943 | -89.05568 | 32033 ft | 412 kts | 301° |
| 2026-05-04 04:36 | 33.06442 | -89.08491 | 32166 ft | 412 kts | 301° |
| 2026-05-04 04:36 | 33.07938 | -89.11411 | 32166 ft | 412 kts | 301° |
| 2026-05-04 04:36 | 33.10929 | -89.17255 | 32162 ft | 412 kts | 301° |
| 2026-05-04 04:37 | 33.16896 | -89.28943 | 32137 ft | 412 kts | 301° |
| 2026-05-04 04:38 | 33.19873 | -89.34787 | 32109 ft | 412 kts | 301° |
| 2026-05-04 04:38 | 33.22851 | -89.40644 | 32076 ft | 412 kts | 301° |
| 2026-05-04 04:39 | 33.25322 | -89.45510 | 32061 ft | 412 kts | 301° |
| 2026-05-04 04:39 | 33.28287 | -89.51358 | 32084 ft | 412 kts | 301° |
| 2026-05-04 04:40 | 33.31250 | -89.57210 | 32080 ft | 411 kts | 301° |
| 2026-05-04 04:40 | 33.34212 | -89.63070 | 32079 ft | 411 kts | 301° |
| 2026-05-04 04:41 | 33.37166 | -89.68925 | 32103 ft | 411 kts | 301° |
| 2026-05-04 04:41 | 33.40101 | -89.74751 | 32105 ft | 411 kts | 301° |
| 2026-05-04 04:42 | 33.43052 | -89.80617 | 32100 ft | 411 kts | 301° |
| 2026-05-04 04:42 | 33.45994 | -89.86476 | 32102 ft | 411 kts | 301° |
| 2026-05-04 04:43 | 33.48940 | -89.92352 | 32104 ft | 411 kts | 301° |
| 2026-05-04 04:43 | 33.51883 | -89.98233 | 32106 ft | 411 kts | 301° |
| 2026-05-04 04:44 | 33.54822 | -90.04114 | 32105 ft | 411 kts | 300° |
| 2026-05-04 04:44 | 33.57754 | -90.09991 | 32109 ft | 410 kts | 300° |
| 2026-05-04 04:45 | 33.60681 | -90.15866 | 32110 ft | 410 kts | 300° |
| 2026-05-04 04:47 | 33.70884 | -90.36425 | 32104 ft | 409 kts | 300° |
| 2026-05-04 04:47 | 33.73790 | -90.42301 | 32092 ft | 409 kts | 300° |
| 2026-05-04 04:48 | 33.76666 | -90.48127 | 32093 ft | 408 kts | 300° |
| 2026-05-04 04:49 | 33.83889 | -90.62799 | 32086 ft | 407 kts | 300° |
| 2026-05-04 04:49 | 33.86770 | -90.68670 | 32086 ft | 407 kts | 300° |
| 2026-05-04 04:50 | 33.89652 | -90.74551 | 32087 ft | 407 kts | 300° |
| 2026-05-04 04:50 | 33.92526 | -90.80426 | 32082 ft | 407 kts | 300° |
| 2026-05-04 04:51 | 33.95395 | -90.86300 | 32115 ft | 407 kts | 300° |
| 2026-05-04 04:51 | 33.98265 | -90.92184 | 32098 ft | 407 kts | 300° |
| 2026-05-04 04:52 | 34.01116 | -90.98042 | 32090 ft | 407 kts | 300° |
| 2026-05-04 04:52 | 34.03978 | -91.03930 | 32089 ft | 407 kts | 300° |
| 2026-05-04 04:53 | 34.06835 | -91.09819 | 32087 ft | 407 kts | 299° |
| 2026-05-04 04:53 | 34.09691 | -91.15714 | 32076 ft | 407 kts | 300° |
| 2026-05-04 04:54 | 34.12543 | -91.21612 | 32083 ft | 406 kts | 300° |
| 2026-05-04 04:54 | 34.15383 | -91.27494 | 32085 ft | 406 kts | 300° |
| 2026-05-04 04:55 | 34.18226 | -91.33393 | 32084 ft | 405 kts | 299° |
| 2026-05-04 04:55 | 34.21064 | -91.39291 | 32104 ft | 405 kts | 299° |
| 2026-05-04 04:56 | 34.23895 | -91.45183 | 32082 ft | 406 kts | 299° |
| 2026-05-04 04:56 | 34.26726 | -91.51086 | 32078 ft | 406 kts | 299° |
| 2026-05-04 04:57 | 34.29553 | -91.56990 | 32061 ft | 406 kts | 299° |
| 2026-05-04 04:57 | 34.32357 | -91.62856 | 32064 ft | 405 kts | 299° |
| 2026-05-04 04:58 | 34.35177 | -91.68767 | 32061 ft | 405 kts | 299° |
| 2026-05-04 04:58 | 34.37993 | -91.74678 | 32060 ft | 405 kts | 299° |
| 2026-05-04 04:59 | 34.40805 | -91.80591 | 32061 ft | 405 kts | 299° |
| 2026-05-04 04:59 | 34.43615 | -91.86509 | 32054 ft | 405 kts | 299° |
| 2026-05-04 05:00 | 34.46427 | -91.92435 | 32067 ft | 405 kts | 299° |
| 2026-05-04 05:01 | 34.50629 | -92.01341 | 32053 ft | 406 kts | 298° |
| 2026-05-04 05:01 | 34.53346 | -92.07291 | 32055 ft | 406 kts | 298° |
| 2026-05-04 05:02 | 34.56058 | -92.13300 | 32049 ft | 406 kts | 298° |
| 2026-05-04 05:02 | 34.58776 | -92.19321 | 32048 ft | 407 kts | 298° |
| 2026-05-04 05:03 | 34.61498 | -92.25348 | 32044 ft | 407 kts | 298° |
| 2026-05-04 05:04 | 34.66937 | -92.37410 | 32047 ft | 407 kts | 297° |
| 2026-05-04 05:04 | 34.69649 | -92.43440 | 32043 ft | 407 kts | 297° |
| 2026-05-04 05:06 | 34.80488 | -92.67644 | 32011 ft | 408 kts | 297° |
| 2026-05-04 05:07 | 34.83196 | -92.73716 | 32019 ft | 408 kts | 297° |
| 2026-05-04 05:07 | 34.85904 | -92.79798 | 32016 ft | 408 kts | 297° |
| 2026-05-04 05:09 | 34.98048 | -93.07221 | 32016 ft | 409 kts | 296° |
| 2026-05-04 05:10 | 35.00739 | -93.13328 | 32001 ft | 409 kts | 296° |
| 2026-05-04 05:10 | 35.03430 | -93.19446 | 32003 ft | 409 kts | 296° |
| 2026-05-04 05:11 | 35.06121 | -93.25574 | 31997 ft | 409 kts | 296° |
| 2026-05-04 05:11 | 35.08805 | -93.31696 | 32000 ft | 409 kts | 296° |
| 2026-05-04 05:12 | 35.11487 | -93.37827 | 31992 ft | 409 kts | 296° |
| 2026-05-04 05:12 | 35.14168 | -93.43965 | 31996 ft | 409 kts | 296° |
| 2026-05-04 05:13 | 35.16845 | -93.50104 | 31995 ft | 409 kts | 296° |
| 2026-05-04 05:13 | 35.19500 | -93.56206 | 31992 ft | 409 kts | 296° |
| 2026-05-04 05:14 | 35.22171 | -93.62355 | 32006 ft | 410 kts | 296° |
| 2026-05-04 05:14 | 35.24842 | -93.68516 | 31997 ft | 411 kts | 296° |
| 2026-05-04 05:15 | 35.27516 | -93.74694 | 32004 ft | 411 kts | 296° |
| 2026-05-04 05:15 | 35.30189 | -93.80881 | 31997 ft | 411 kts | 296° |
| 2026-05-04 05:16 | 35.32855 | -93.87063 | 31993 ft | 411 kts | 296° |
| 2026-05-04 05:16 | 35.35517 | -93.93248 | 31999 ft | 410 kts | 296° |
| 2026-05-04 05:17 | 35.38176 | -93.99437 | 31994 ft | 410 kts | 296° |
| 2026-05-04 05:17 | 35.40827 | -94.05620 | 32006 ft | 410 kts | 296° |
| 2026-05-04 05:18 | 35.43462 | -94.11774 | 32027 ft | 410 kts | 296° |
| 2026-05-04 05:18 | 35.46107 | -94.17966 | 32004 ft | 410 kts | 296° |
| 2026-05-04 05:19 | 35.48751 | -94.24166 | 32003 ft | 410 kts | 296° |
| 2026-05-04 05:19 | 35.51386 | -94.30357 | 32005 ft | 410 kts | 296° |
| 2026-05-04 05:20 | 35.54022 | -94.36560 | 32000 ft | 410 kts | 296° |
| 2026-05-04 05:20 | 35.56656 | -94.42772 | 32003 ft | 410 kts | 296° |
| 2026-05-04 05:21 | 35.59286 | -94.48986 | 32000 ft | 410 kts | 296° |
| 2026-05-04 05:21 | 35.61915 | -94.55208 | 31997 ft | 410 kts | 296° |
| 2026-05-04 05:22 | 35.64540 | -94.61431 | 31986 ft | 410 kts | 296° |
| 2026-05-04 05:22 | 35.67157 | -94.67648 | 32011 ft | 410 kts | 296° |
| 2026-05-04 05:23 | 35.69757 | -94.73837 | 32007 ft | 410 kts | 296° |
| 2026-05-04 05:23 | 35.72374 | -94.80078 | 31990 ft | 410 kts | 296° |
| 2026-05-04 05:24 | 35.74986 | -94.86320 | 31993 ft | 410 kts | 295° |
| 2026-05-04 05:24 | 35.77596 | -94.92567 | 31989 ft | 410 kts | 295° |
| 2026-05-04 05:25 | 35.80203 | -94.98818 | 31982 ft | 410 kts | 295° |
| 2026-05-04 05:25 | 35.82802 | -95.05062 | 31989 ft | 409 kts | 295° |
| 2026-05-04 05:26 | 35.85383 | -95.11276 | 31980 ft | 409 kts | 295° |
| 2026-05-04 05:26 | 35.87970 | -95.17517 | 31979 ft | 409 kts | 295° |
| 2026-05-04 05:28 | 35.97853 | -95.41462 | 31956 ft | 408 kts | 295° |
| 2026-05-04 05:29 | 36.00417 | -95.47706 | 31955 ft | 408 kts | 295° |
| 2026-05-04 05:29 | 36.02963 | -95.53914 | 31951 ft | 407 kts | 295° |
| 2026-05-04 05:31 | 36.13168 | -95.78923 | 31958 ft | 408 kts | 295° |
| 2026-05-04 05:32 | 36.15714 | -95.85192 | 31956 ft | 408 kts | 295° |
| 2026-05-04 05:33 | 36.19532 | -95.94617 | 31956 ft | 408 kts | 295° |
| 2026-05-04 05:33 | 36.22076 | -96.00913 | 31952 ft | 408 kts | 295° |
| 2026-05-04 05:34 | 36.24614 | -96.07205 | 31938 ft | 409 kts | 295° |
| 2026-05-04 05:34 | 36.27152 | -96.13507 | 31928 ft | 408 kts | 295° |
| 2026-05-04 05:35 | 36.29683 | -96.19807 | 31924 ft | 408 kts | 295° |
| 2026-05-04 05:35 | 36.32200 | -96.26084 | 31915 ft | 408 kts | 295° |
| 2026-05-04 05:36 | 36.34728 | -96.32401 | 31926 ft | 409 kts | 295° |
| 2026-05-04 05:36 | 36.37255 | -96.38727 | 31921 ft | 409 kts | 295° |
| 2026-05-04 05:37 | 36.39780 | -96.45062 | 31901 ft | 409 kts | 295° |
| 2026-05-04 05:37 | 36.42301 | -96.51399 | 31899 ft | 409 kts | 295° |
| 2026-05-04 05:38 | 36.46077 | -96.60913 | 31893 ft | 409 kts | 294° |
| 2026-05-04 05:38 | 36.48587 | -96.67254 | 31891 ft | 409 kts | 294° |
| 2026-05-04 05:39 | 36.52332 | -96.76735 | 31883 ft | 409 kts | 294° |
| 2026-05-04 05:40 | 36.56079 | -96.86254 | 31886 ft | 409 kts | 294° |
| 2026-05-04 05:40 | 36.58575 | -96.92608 | 31885 ft | 409 kts | 294° |
| 2026-05-04 05:41 | 36.61069 | -96.98972 | 31884 ft | 409 kts | 294° |
| 2026-05-04 05:41 | 36.63561 | -97.05342 | 31888 ft | 409 kts | 294° |
| 2026-05-04 05:42 | 36.66052 | -97.11722 | 31891 ft | 409 kts | 294° |
| 2026-05-04 05:42 | 36.68538 | -97.18102 | 31889 ft | 409 kts | 294° |
| 2026-05-04 05:43 | 36.71011 | -97.24464 | 32439 ft | 406 kts | 294° |
| 2026-05-04 05:43 | 36.72221 | -97.27577 | 33311 ft | 392 kts | 294° |
| 2026-05-04 05:45 | 36.80040 | -97.47793 | 36353 ft | 364 kts | 294° |
| 2026-05-04 05:45 | 36.81131 | -97.50622 | 36753 ft | 359 kts | 294° |
| 2026-05-04 05:47 | 36.88549 | -97.69939 | 38667 ft | 348 kts | 294° |
| 2026-05-04 05:47 | 36.89596 | -97.72675 | 38780 ft | 349 kts | 294° |
| 2026-05-04 05:47 | 36.90642 | -97.75413 | 38928 ft | 349 kts | 294° |
| 2026-05-04 05:48 | 36.91690 | -97.78157 | 39086 ft | 349 kts | 294° |
| 2026-05-04 05:48 | 36.92735 | -97.80894 | 39206 ft | 350 kts | 294° |
| 2026-05-04 05:48 | 36.93783 | -97.83642 | 39338 ft | 350 kts | 294° |
| 2026-05-04 05:48 | 36.94828 | -97.86387 | 39488 ft | 350 kts | 294° |
| 2026-05-04 05:49 | 36.95873 | -97.89132 | 39614 ft | 350 kts | 294° |
| 2026-05-04 05:49 | 36.96917 | -97.91877 | 39732 ft | 349 kts | 294° |
| 2026-05-04 05:49 | 36.99013 | -97.97394 | 39806 ft | 353 kts | 294° |
| 2026-05-04 05:51 | 37.06353 | -98.17355 | 39840 ft | 369 kts | 293° |
| 2026-05-04 05:51 | 37.07409 | -98.20258 | 39843 ft | 371 kts | 293° |
| 2026-05-04 05:52 | 37.09559 | -98.26170 | 39835 ft | 375 kts | 293° |
| 2026-05-04 05:52 | 37.11734 | -98.32159 | 39827 ft | 380 kts | 293° |
| 2026-05-04 05:54 | 37.20504 | -98.56418 | 39774 ft | 384 kts | 293° |
| 2026-05-04 05:55 | 37.22704 | -98.62534 | 39772 ft | 385 kts | 293° |
| 2026-05-04 05:55 | 37.24903 | -98.68661 | 39769 ft | 385 kts | 293° |
| 2026-05-04 05:56 | 37.27101 | -98.74797 | 39763 ft | 385 kts | 293° |
| 2026-05-04 05:56 | 37.29290 | -98.80919 | 39756 ft | 384 kts | 293° |
| 2026-05-04 05:57 | 37.31460 | -98.87003 | 39761 ft | 384 kts | 293° |
| 2026-05-04 05:57 | 37.33638 | -98.93121 | 39761 ft | 383 kts | 293° |
| 2026-05-04 05:58 | 37.35811 | -98.99236 | 39763 ft | 383 kts | 293° |
| 2026-05-04 05:58 | 37.37981 | -99.05354 | 39769 ft | 384 kts | 293° |
| 2026-05-04 05:59 | 37.40154 | -99.11494 | 39751 ft | 384 kts | 293° |
| 2026-05-04 05:59 | 37.42323 | -99.17637 | 39758 ft | 384 kts | 293° |
| 2026-05-04 06:00 | 37.44489 | -99.23782 | 39757 ft | 384 kts | 293° |
| 2026-05-04 06:00 | 37.46653 | -99.29934 | 39765 ft | 384 kts | 293° |
| 2026-05-04 06:01 | 37.48812 | -99.36086 | 39763 ft | 384 kts | 293° |
| 2026-05-04 06:03 | 37.57402 | -99.60684 | 39776 ft | 383 kts | 292° |
| 2026-05-04 06:05 | 37.67009 | -99.88439 | 39820 ft | 384 kts | 292° |
| 2026-05-04 06:06 | 37.69136 | -99.94620 | 39834 ft | 383 kts | 292° |
| 2026-05-04 06:06 | 37.71255 | -100.00790 | 39832 ft | 383 kts | 292° |
| 2026-05-04 06:07 | 37.73372 | -100.06967 | 39834 ft | 383 kts | 292° |
| 2026-05-04 06:07 | 37.75485 | -100.13144 | 39844 ft | 383 kts | 292° |
| 2026-05-04 06:08 | 37.77597 | -100.19331 | 39822 ft | 384 kts | 292° |
| 2026-05-04 06:08 | 37.79712 | -100.25545 | 39796 ft | 385 kts | 292° |
| 2026-05-04 06:09 | 37.81827 | -100.31768 | 39766 ft | 386 kts | 292° |
| 2026-05-04 06:11 | 37.90281 | -100.56774 | 39814 ft | 387 kts | 292° |
| 2026-05-04 06:13 | 37.98652 | -100.81751 | 39754 ft | 383 kts | 291° |
| 2026-05-04 06:14 | 38.05875 | -101.03476 | 39759 ft | 382 kts | 291° |
| 2026-05-04 06:15 | 38.07930 | -101.09687 | 39759 ft | 382 kts | 291° |
| 2026-05-04 06:15 | 38.09987 | -101.15916 | 39759 ft | 382 kts | 291° |
| 2026-05-04 06:16 | 38.11691 | -101.21088 | 39776 ft | 382 kts | 291° |
| 2026-05-04 06:16 | 38.13744 | -101.27333 | 39772 ft | 384 kts | 291° |
| 2026-05-04 06:17 | 38.15802 | -101.33605 | 39752 ft | 385 kts | 291° |
| 2026-05-04 06:17 | 38.17859 | -101.39885 | 39760 ft | 385 kts | 291° |
| 2026-05-04 06:18 | 38.20068 | -101.46105 | 39763 ft | 387 kts | 298° |
| 2026-05-04 06:20 | 38.31772 | -101.69235 | 39774 ft | 389 kts | 300° |
| 2026-05-04 06:21 | 38.39004 | -101.83788 | 39775 ft | 390 kts | 300° |
| 2026-05-04 06:22 | 38.41909 | -101.89651 | 39783 ft | 390 kts | 300° |
| 2026-05-04 06:25 | 38.62078 | -102.30697 | 39785 ft | 390 kts | 300° |
| 2026-05-04 06:26 | 38.64945 | -102.36596 | 39788 ft | 390 kts | 300° |
| 2026-05-04 06:26 | 38.67806 | -102.42493 | 39789 ft | 390 kts | 300° |
| 2026-05-04 06:27 | 38.74953 | -102.57271 | 39796 ft | 390 kts | 300° |
| 2026-05-04 06:28 | 38.77805 | -102.63186 | 39787 ft | 390 kts | 299° |
| 2026-05-04 06:28 | 38.80652 | -102.69101 | 39797 ft | 390 kts | 299° |
| 2026-05-04 06:29 | 38.83498 | -102.75027 | 39794 ft | 390 kts | 299° |
| 2026-05-04 06:29 | 38.86315 | -102.80903 | 39796 ft | 388 kts | 299° |
| 2026-05-04 06:30 | 38.89144 | -102.86814 | 39813 ft | 388 kts | 299° |
| 2026-05-04 06:30 | 38.91976 | -102.92743 | 39807 ft | 389 kts | 299° |
| 2026-05-04 06:31 | 38.94803 | -102.98671 | 39814 ft | 389 kts | 299° |
| 2026-05-04 06:31 | 38.97661 | -103.04596 | 39811 ft | 390 kts | 300° |
| 2026-05-04 06:33 | 39.08991 | -103.28183 | 35928 ft | 382 kts | 300° |
| 2026-05-04 06:34 | 39.10379 | -103.31117 | 35299 ft | 384 kts | 300° |
| 2026-05-04 06:34 | 39.11770 | -103.34057 | 34654 ft | 386 kts | 300° |
| 2026-05-04 06:34 | 39.13175 | -103.37028 | 33988 ft | 389 kts | 300° |
| 2026-05-04 06:34 | 39.14592 | -103.40027 | 33215 ft | 393 kts | 300° |
| 2026-05-04 06:35 | 39.16014 | -103.43038 | 32476 ft | 395 kts | 300° |
| 2026-05-04 06:36 | 39.26295 | -103.64889 | 27639 ft | 400 kts | 300° |
| 2026-05-04 06:37 | 39.27711 | -103.67909 | 27431 ft | 387 kts | 300° |
| 2026-05-04 06:37 | 39.29092 | -103.70826 | 27158 ft | 377 kts | 301° |
| 2026-05-04 06:37 | 39.30542 | -103.73647 | 26564 ft | 376 kts | 303° |
| 2026-05-04 06:37 | 39.32032 | -103.76430 | 25932 ft | 377 kts | 303° |
| 2026-05-04 06:38 | 39.33527 | -103.79202 | 25366 ft | 375 kts | 303° |
| 2026-05-04 06:38 | 39.35008 | -103.81962 | 24851 ft | 373 kts | 303° |
| 2026-05-04 06:40 | 39.44734 | -104.00367 | 22591 ft | 325 kts | 304° |
| 2026-05-04 06:40 | 39.46064 | -104.02700 | 22272 ft | 320 kts | 305° |
| 2026-05-04 06:40 | 39.47406 | -104.04997 | 21852 ft | 320 kts | 305° |
| 2026-05-04 06:40 | 39.48749 | -104.07292 | 21449 ft | 319 kts | 305° |
| 2026-05-04 06:41 | 39.50078 | -104.09577 | 21063 ft | 317 kts | 304° |
| 2026-05-04 06:41 | 39.51394 | -104.11854 | 20688 ft | 315 kts | 304° |
| 2026-05-04 06:41 | 39.52705 | -104.14129 | 20316 ft | 313 kts | 304° |
| 2026-05-04 06:41 | 39.54007 | -104.16392 | 19947 ft | 312 kts | 304° |
| 2026-05-04 06:42 | 39.55297 | -104.18641 | 19597 ft | 310 kts | 304° |
| 2026-05-04 06:42 | 39.56433 | -104.20998 | 19263 ft | 307 kts | 296° |
| 2026-05-04 06:42 | 39.57395 | -104.23468 | 18867 ft | 308 kts | 294° |
| 2026-05-04 06:44 | 39.63866 | -104.40602 | 16616 ft | 293 kts | 295° |
| 2026-05-04 06:44 | 39.64765 | -104.42942 | 16436 ft | 289 kts | 295° |
| 2026-05-04 06:44 | 39.65666 | -104.45286 | 16196 ft | 292 kts | 295° |
| 2026-05-04 06:45 | 39.66579 | -104.47665 | 15969 ft | 297 kts | 295° |
| 2026-05-04 06:45 | 39.67507 | -104.50082 | 15750 ft | 299 kts | 295° |
| 2026-05-04 06:45 | 39.68411 | -104.52437 | 15689 ft | 288 kts | 295° |
| 2026-05-04 06:45 | 39.69292 | -104.54730 | 15350 ft | 280 kts | 296° |
| 2026-05-04 06:46 | 39.70283 | -104.56906 | 14852 ft | 279 kts | 302° |
| 2026-05-04 06:46 | 39.71344 | -104.58944 | 14648 ft | 267 kts | 303° |
| 2026-05-04 06:46 | 39.72366 | -104.60913 | 14375 ft | 259 kts | 302° |
| 2026-05-04 06:46 | 39.73349 | -104.62832 | 14101 ft | 252 kts | 302° |
| 2026-05-04 06:48 | 39.79732 | -104.75615 | 12202 ft | 236 kts | 302° |
| 2026-05-04 06:48 | 39.80617 | -104.77399 | 11930 ft | 234 kts | 302° |
| 2026-05-04 06:49 | 39.81482 | -104.79144 | 11720 ft | 230 kts | 302° |
| 2026-05-04 06:50 | 39.91452 | -104.83941 | 10958 ft | 234 kts | 358° |
| 2026-05-04 06:51 | 39.93045 | -104.83937 | 10866 ft | 221 kts | 354° |
| 2026-05-04 06:51 | 39.94594 | -104.84034 | 10903 ft | 225 kts | 354° |
| 2026-05-04 06:51 | 39.96157 | -104.84125 | 10899 ft | 224 kts | 355° |
| 2026-05-04 06:51 | 39.97713 | -104.84189 | 10892 ft | 223 kts | 355° |
| 2026-05-04 06:52 | 39.99261 | -104.84253 | 10888 ft | 222 kts | 355° |
| 2026-05-04 06:52 | 40.00805 | -104.84324 | 10880 ft | 222 kts | 355° |
| 2026-05-04 06:52 | 40.02346 | -104.84393 | 10876 ft | 222 kts | 355° |
| 2026-05-04 06:52 | 40.03888 | -104.84459 | 10871 ft | 222 kts | 355° |
| 2026-05-04 06:53 | 40.05433 | -104.84530 | 10863 ft | 222 kts | 355° |
| 2026-05-04 06:53 | 40.06981 | -104.84603 | 10853 ft | 223 kts | 355° |
| 2026-05-04 06:53 | 40.08530 | -104.84678 | 10786 ft | 223 kts | 355° |
| 2026-05-04 06:53 | 40.10084 | -104.84732 | 10781 ft | 224 kts | 1° |
| 2026-05-04 06:54 | 40.11502 | -104.83990 | 10781 ft | 229 kts | 41° |
| 2026-05-04 06:54 | 40.12295 | -104.82199 | 10801 ft | 233 kts | 76° |
| 2026-05-04 06:54 | 40.12278 | -104.80081 | 10795 ft | 236 kts | 106° |
| 2026-05-04 06:54 | 40.11458 | -104.78250 | 10791 ft | 236 kts | 139° |
| 2026-05-04 06:55 | 40.10027 | -104.77312 | 10783 ft | 232 kts | 174° |
| 2026-05-04 06:55 | 40.08471 | -104.77598 | 10783 ft | 226 kts | 201° |
| 2026-05-04 06:55 | 40.06922 | -104.77784 | 10590 ft | 229 kts | 165° |
| 2026-05-04 06:55 | 40.05607 | -104.76657 | 10159 ft | 230 kts | 134° |
| 2026-05-04 06:56 | 40.04446 | -104.75222 | 9685 ft | 230 kts | 142° |
| 2026-05-04 06:57 | 39.95494 | -104.69780 | 6793 ft | 169 kts | 174° |
| 2026-05-04 06:58 | 39.94348 | -104.69532 | 6560 ft | 160 kts | 178° |
| 2026-05-04 06:58 | 39.93179 | -104.69493 | 6090 ft | 171 kts | 186° |
| 2026-05-04 06:58 | 39.92011 | -104.69586 | 5788 ft | 167 kts | 184° |
| 2026-05-04 06:58 | 39.90860 | -104.69587 | 5545 ft | 168 kts | 183° |
| 2026-05-04 06:59 | 39.89675 | -104.69607 | 5372 ft | 168 kts | 183° |
| 2026-05-04 06:59 | 39.88609 | -104.69620 | 5337 ft | 135 kts | 181° |
| 2026-05-04 06:59 | 39.87830 | -104.69620 | 5334 ft | 68 kts | 170° |
| 2026-05-04 06:59 | 39.87635 | -104.69514 | 5336 ft | 14 kts | 153° |
| 2026-05-04 07:01 | 39.87033 | -104.69424 | 5334 ft | 12 kts | 180° |
| 2026-05-04 07:01 | 39.86927 | -104.69424 | 5335 ft | 20 kts | 180° |
| 2026-05-04 07:02 | 39.86758 | -104.69424 | 5335 ft | 28 kts | 180° |
| 2026-05-04 07:02 | 39.86536 | -104.69421 | 5336 ft | 34 kts | 169° |
| 2026-05-04 07:02 | 39.86304 | -104.69266 | 5339 ft | 40 kts | 150° |
| 2026-05-04 07:02 | 39.86070 | -104.69091 | 5346 ft | 34 kts | 141° |
| 2026-05-04 07:03 | 39.86038 | -104.68879 | 5355 ft | 23 kts | 91° |
| 2026-05-04 07:03 | 39.86035 | -104.68672 | 5364 ft | 22 kts | 90° |
| 2026-05-04 07:03 | 39.86035 | -104.68472 | 5367 ft | 22 kts | 90° |
| 2026-05-04 07:03 | 39.86036 | -104.68276 | 5372 ft | 21 kts | 89° |
| 2026-05-04 07:04 | 39.86085 | -104.68102 | 5376 ft | 21 kts | 56° |
| 2026-05-04 07:04 | 39.86141 | -104.67931 | 5376 ft | 20 kts | 100° |
| 2026-05-04 07:04 | 39.86170 | -104.67778 | 5371 ft | 15 kts | 39° |
| 2026-05-04 07:04 | 39.86193 | -104.67659 | 5376 ft | 14 kts | 91° |
| 2026-05-04 07:05 | 39.86192 | -104.67578 | 5376 ft | 2 kts | 91° |
| 2026-05-04 07:05 | 39.86196 | -104.67550 | 5373 ft | 8 kts | 67° |
| 2026-05-04 07:05 | 39.86242 | -104.67527 | 5375 ft | 3 kts | 1° |
| 2026-05-04 07:05 | 39.86252 | -104.67527 | 5374 ft | 2 kts | 1° |
| 2026-05-04 07:06 | 39.86255 | -104.67527 | 5373 ft | 0 kts | 0° |
| 2026-05-04 07:10 | 39.86256 | -104.67527 | 5373 ft | 0 kts | 0° |